Time;durP1;ratioP1;P1;durP2;ratioP2;P2;SDS_P1;SDS_P2;PMS_P1;PMS_P2;Temp;Humidity;BMP_temperature;BMP_pressure;BME280_temperature;BME280_humidity;BME280_pressure;Samples;Min_cycle;Max_cycle;Signal;HPM_P1;HPM_P2
2023/06/28 00:00:22;;;;;;;;;;;19.60;99.90;;;;;;7332494;19;108809;-57
2023/06/28 00:02:49;;;;;;;;;;;19.60;99.90;;;;;;7332978;19;112353;-57
2023/06/28 00:05:17;;;;;;;;;;;19.60;99.90;;;;;;7331559;19;109129;-57
2023/06/28 00:07:44;;;;;;;;;;;19.60;99.90;;;;;;7329680;19;108961;-58
2023/06/28 00:10:11;;;;;;;;;;;19.60;99.90;;;;;;7332709;19;108779;-58
2023/06/28 00:12:38;;;;;;;;;;;19.50;99.90;;;;;;7333540;19;109502;-57
2023/06/28 00:15:06;;;;;;;;;;;19.40;99.90;;;;;;7332991;19;108413;-58
2023/06/28 00:17:33;;;;;;;;;;;19.30;99.90;;;;;;7338204;19;109513;-58
2023/06/28 00:20:06;;;;;;;;;;;19.20;99.90;;;;;;7336340;19;111225;-57
2023/06/28 00:22:33;;;;;;;;;;;19.20;99.90;;;;;;7336467;19;110826;-58
2023/06/28 00:25:01;;;;;;;;;;;19.10;99.90;;;;;;7332436;19;109991;-58
2023/06/28 00:27:29;;;;;;;;;;;19.20;99.90;;;;;;7333161;19;108725;-58
2023/06/28 00:29:56;;;;;;;;;;;19.30;99.90;;;;;;7335027;19;109367;-57
2023/06/28 00:32:24;;;;;;;;;;;19.30;99.90;;;;;;7329175;19;110441;-57
2023/06/28 00:34:51;;;;;;;;;;;19.30;99.90;;;;;;7335491;19;110800;-58
2023/06/28 00:37:18;;;;;;;;;;;19.40;99.90;;;;;;7332199;19;109232;-58
2023/06/28 00:39:46;;;;;;;;;;;19.40;99.90;;;;;;7337570;19;109163;-58
2023/06/28 00:42:13;;;;;;;;;;;19.40;99.90;;;;;;7332111;19;109786;-57
2023/06/28 00:44:40;;;;;;;;;;;19.40;99.90;;;;;;7326658;19;110357;-57
2023/06/28 00:47:08;;;;;;;;;;;19.40;99.90;;;;;;7328951;19;109914;-57
2023/06/28 00:49:36;;;;;;;;;;;19.40;99.90;;;;;;7327999;19;112308;-57
2023/06/28 00:52:07;;;;;;;;;;;19.40;99.90;;;;;;7331417;19;110704;-58
2023/06/28 00:54:35;;;;;;;;;;;19.40;99.90;;;;;;7327418;19;108588;-58
2023/06/28 00:57:02;;;;;;;;;;;19.40;99.90;;;;;;7331851;19;109468;-57
2023/06/28 00:59:30;;;;;;;;;;;19.30;99.90;;;;;;7331750;19;111425;-58
2023/06/28 01:01:57;;;;;;;;;;;19.30;99.90;;;;;;7333253;19;111604;-57
2023/06/28 01:04:24;;;;;;;;;;;19.30;99.90;;;;;;7335190;19;110098;-57
2023/06/28 01:06:53;;;;;;;;;;;19.30;99.90;;;;;;7332059;19;111035;-58
2023/06/28 01:09:21;;;;;;;;;;;19.30;99.90;;;;;;7331313;19;109285;-57
2023/06/28 01:11:49;;;;;;;;;;;19.30;99.90;;;;;;7332238;19;110050;-58
2023/06/28 01:14:17;;;;;;;;;;;19.20;99.90;;;;;;7335211;19;109112;-57
2023/06/28 01:16:54;;;;;;;;;;;19.20;99.90;;;;;;7328793;19;112020;-58
2023/06/28 01:19:25;;;;;;;;;;;19.20;99.90;;;;;;7335569;19;110647;-57
2023/06/28 01:21:57;;;;;;;;;;;19.20;99.90;;;;;;7338894;19;108622;-57
2023/06/28 01:24:25;;;;;;;;;;;19.20;99.90;;;;;;7333455;19;109100;-57
2023/06/28 01:26:52;;;;;;;;;;;19.20;99.90;;;;;;7336206;19;108896;-58
2023/06/28 01:29:24;;;;;;;;;;;19.20;99.90;;;;;;7332623;19;109985;-63
2023/06/28 01:31:52;;;;;;;;;;;19.20;99.90;;;;;;7333120;19;109622;-57
2023/06/28 01:34:19;;;;;;;;;;;19.10;99.90;;;;;;7331897;19;112639;-57
2023/06/28 01:36:47;;;;;;;;;;;19.20;99.90;;;;;;7326264;19;110647;-62
2023/06/28 01:39:15;;;;;;;;;;;19.10;99.90;;;;;;7333016;19;109736;-61
2023/06/28 01:41:43;;;;;;;;;;;19.10;99.90;;;;;;7326057;19;110536;-62
2023/06/28 01:44:10;;;;;;;;;;;19.20;99.90;;;;;;7340390;19;108979;-62
2023/06/28 01:46:41;;;;;;;;;;;19.20;99.90;;;;;;7330259;19;118917;-62
2023/06/28 01:49:08;;;;;;;;;;;19.20;99.90;;;;;;7333914;19;109029;-65
2023/06/28 01:51:36;;;;;;;;;;;19.20;99.90;;;;;;7334557;19;109738;-62
2023/06/28 01:54:03;;;;;;;;;;;19.20;99.90;;;;;;7327725;19;109232;-62
2023/06/28 01:56:30;;;;;;;;;;;19.10;99.90;;;;;;7334108;19;108199;-62
2023/06/28 01:58:57;;;;;;;;;;;19.20;99.90;;;;;;7333375;19;109472;-63
2023/06/28 02:01:25;;;;;;;;;;;19.20;99.90;;;;;;7330906;19;109569;-65
2023/06/28 02:03:52;;;;;;;;;;;19.20;99.90;;;;;;7330145;19;109459;-62
2023/06/28 02:06:19;;;;;;;;;;;19.10;99.90;;;;;;7333467;19;109722;-62
2023/06/28 02:08:46;;;;;;;;;;;19.20;99.90;;;;;;7333281;19;110255;-63
2023/06/28 02:11:13;;;;;;;;;;;19.10;99.90;;;;;;7322722;19;110397;-62
2023/06/28 02:13:40;;;;;;;;;;;19.10;99.90;;;;;;7330899;19;108386;-62
2023/06/28 02:16:07;;;;;;;;;;;19.10;99.90;;;;;;7329866;19;108844;-63
2023/06/28 02:18:34;;;;;;;;;;;19.10;99.90;;;;;;7327935;19;109123;-62
2023/06/28 02:21:01;;;;;;;;;;;19.10;99.90;;;;;;7329804;19;108530;-62
2023/06/28 02:23:28;;;;;;;;;;;19.00;99.90;;;;;;7330369;19;109576;-62
2023/06/28 02:25:55;;;;;;;;;;;19.10;99.90;;;;;;7330394;19;110118;-62
2023/06/28 02:28:25;;;;;;;;;;;19.10;99.90;;;;;;7337136;19;109839;-65
2023/06/28 02:30:52;;;;;;;;;;;19.10;99.90;;;;;;7331274;19;110179;-66
2023/06/28 02:33:19;;;;;;;;;;;19.10;99.90;;;;;;7334242;19;108560;-63
2023/06/28 02:35:46;;;;;;;;;;;19.10;99.90;;;;;;7329034;19;110260;-64
2023/06/28 02:38:13;;;;;;;;;;;19.00;99.90;;;;;;7326418;19;110276;-63
2023/06/28 02:40:40;;;;;;;;;;;19.10;99.90;;;;;;7332122;19;108689;-64
2023/06/28 02:43:07;;;;;;;;;;;19.00;99.90;;;;;;7328091;19;110457;-63
2023/06/28 02:45:35;;;;;;;;;;;19.00;99.90;;;;;;7330979;19;113892;-64
2023/06/28 02:48:02;;;;;;;;;;;19.00;99.90;;;;;;7332584;19;109071;-63
2023/06/28 02:50:30;;;;;;;;;;;19.00;99.90;;;;;;7344975;19;110916;-63
2023/06/28 02:52:57;;;;;;;;;;;19.00;99.90;;;;;;7333045;19;109243;-63
2023/06/28 02:55:24;;;;;;;;;;;19.00;99.90;;;;;;7339023;19;108436;-67
2023/06/28 02:57:52;;;;;;;;;;;19.00;99.90;;;;;;7338373;19;110640;-65
2023/06/28 03:00:19;;;;;;;;;;;19.00;99.90;;;;;;7334027;19;108395;-63
2023/06/28 03:02:46;;;;;;;;;;;19.00;99.90;;;;;;7332240;19;110106;-63
2023/06/28 03:05:13;;;;;;;;;;;18.90;99.90;;;;;;7335887;19;109223;-64
2023/06/28 03:07:40;;;;;;;;;;;18.80;99.90;;;;;;7335651;19;108789;-63
2023/06/28 03:10:07;;;;;;;;;;;18.80;99.90;;;;;;7339324;19;109409;-87
2023/06/28 03:12:34;;;;;;;;;;;18.80;99.90;;;;;;7330800;19;109132;-88
2023/06/28 03:15:01;;;;;;;;;;;18.70;99.90;;;;;;7327901;19;110244;-88
2023/06/28 03:17:29;;;;;;;;;;;18.70;99.90;;;;;;7326982;19;112864;-87
2023/06/28 03:19:57;;;;;;;;;;;18.80;99.90;;;;;;7325989;19;108797;-87
2023/06/28 03:22:24;;;;;;;;;;;18.80;99.90;;;;;;7326091;19;112310;-87
2023/06/28 03:24:51;;;;;;;;;;;18.80;99.90;;;;;;7325988;19;111043;-63
2023/06/28 03:27:19;;;;;;;;;;;18.70;99.90;;;;;;7336010;19;109210;-63
2023/06/28 03:29:46;;;;;;;;;;;18.70;99.90;;;;;;7333321;19;108663;-63
2023/06/28 03:32:13;;;;;;;;;;;18.70;99.90;;;;;;7340942;19;109251;-64
2023/06/28 03:34:40;;;;;;;;;;;18.70;99.90;;;;;;7330541;19;110567;-67
2023/06/28 03:37:07;;;;;;;;;;;18.70;99.90;;;;;;7336691;19;109075;-63
2023/06/28 03:39:34;;;;;;;;;;;18.70;99.90;;;;;;7334399;19;109424;-63
2023/06/28 03:42:02;;;;;;;;;;;18.70;99.90;;;;;;7335494;19;111183;-62
2023/06/28 03:44:29;;;;;;;;;;;18.70;99.90;;;;;;7331567;19;109940;-62
2023/06/28 03:46:56;;;;;;;;;;;18.80;99.90;;;;;;7331207;19;111637;-64
2023/06/28 03:49:23;;;;;;;;;;;18.70;99.90;;;;;;7335579;19;109012;-62
2023/06/28 03:51:50;;;;;;;;;;;18.80;99.90;;;;;;7332807;19;110274;-62
2023/06/28 03:54:17;;;;;;;;;;;18.80;99.90;;;;;;7335938;19;109139;-63
2023/06/28 03:56:47;;;;;;;;;;;18.80;99.90;;;;;;7333616;19;112587;-63
2023/06/28 03:59:14;;;;;;;;;;;18.80;99.90;;;;;;7335052;19;110885;-65
2023/06/28 04:01:41;;;;;;;;;;;18.90;99.90;;;;;;7332241;19;109237;-64
2023/06/28 04:04:11;;;;;;;;;;;18.90;99.90;;;;;;7333403;19;109187;-63
2023/06/28 04:06:38;;;;;;;;;;;18.90;99.90;;;;;;7329642;19;109214;-63
2023/06/28 04:09:05;;;;;;;;;;;18.90;99.90;;;;;;7337118;19;109902;-63
2023/06/28 04:11:32;;;;;;;;;;;18.90;99.90;;;;;;7332549;19;110094;-63
2023/06/28 04:13:59;;;;;;;;;;;18.90;99.90;;;;;;7337370;19;108586;-63
2023/06/28 04:16:26;;;;;;;;;;;18.90;99.90;;;;;;7336562;19;109520;-63
2023/06/28 04:18:53;;;;;;;;;;;18.90;99.90;;;;;;7336940;19;109025;-63
2023/06/28 04:21:20;;;;;;;;;;;18.90;99.90;;;;;;7332652;19;111491;-63
2023/06/28 04:23:47;;;;;;;;;;;18.90;99.90;;;;;;7334697;19;108921;-63
2023/06/28 04:26:14;;;;;;;;;;;18.90;99.90;;;;;;7330376;19;108949;-63
2023/06/28 04:28:41;;;;;;;;;;;18.90;99.90;;;;;;7333337;19;108645;-63
2023/06/28 04:31:08;;;;;;;;;;;18.90;99.90;;;;;;7331252;19;109105;-63
2023/06/28 04:33:36;;;;;;;;;;;18.90;99.90;;;;;;7334768;19;109466;-64
2023/06/28 04:36:03;;;;;;;;;;;18.90;99.90;;;;;;7332735;19;108668;-64
2023/06/28 04:38:32;;;;;;;;;;;18.90;99.90;;;;;;7338839;19;109139;-63
2023/06/28 04:40:59;;;;;;;;;;;19.00;99.90;;;;;;7331932;19;108763;-63
2023/06/28 04:43:39;;;;;;;;;;;19.00;99.90;;;;;;7333765;19;111019;-63
2023/06/28 04:46:11;;;;;;;;;;;19.00;99.90;;;;;;7328062;19;110179;-63
2023/06/28 04:48:40;;;;;;;;;;;19.00;99.90;;;;;;7337097;19;109148;-63
2023/06/28 04:51:08;;;;;;;;;;;19.00;99.90;;;;;;7332704;19;110115;-63
2023/06/28 04:53:35;;;;;;;;;;;19.00;99.90;;;;;;7330784;19;110383;-63
2023/06/28 04:56:02;;;;;;;;;;;19.00;99.90;;;;;;7333787;19;110956;-63
2023/06/28 04:58:29;;;;;;;;;;;19.00;99.90;;;;;;7333137;19;109846;-63
2023/06/28 05:00:56;;;;;;;;;;;18.90;99.90;;;;;;7337141;19;109119;-63
2023/06/28 05:03:29;;;;;;;;;;;19.00;99.90;;;;;;7333294;19;110345;-63
2023/06/28 05:05:56;;;;;;;;;;;19.00;99.90;;;;;;7332524;19;110940;-63
2023/06/28 05:08:23;;;;;;;;;;;19.00;99.90;;;;;;7328080;19;111072;-63
2023/06/28 05:10:51;;;;;;;;;;;19.00;99.90;;;;;;7335405;19;109224;-64
2023/06/28 05:13:18;;;;;;;;;;;19.00;99.90;;;;;;7332467;19;110548;-63
2023/06/28 05:15:46;;;;;;;;;;;19.00;99.90;;;;;;7331589;19;108981;-63
2023/06/28 05:18:14;;;;;;;;;;;19.00;99.90;;;;;;7332815;19;110439;-63
2023/06/28 05:20:41;;;;;;;;;;;19.10;99.90;;;;;;7338071;19;109719;-63
2023/06/28 05:23:08;;;;;;;;;;;19.10;99.90;;;;;;7334389;19;110411;-64
2023/06/28 05:25:36;;;;;;;;;;;19.10;99.90;;;;;;7334999;19;110142;-63
2023/06/28 05:28:03;;;;;;;;;;;19.10;99.90;;;;;;7331984;19;108455;-63
2023/06/28 05:30:31;;;;;;;;;;;19.10;99.90;;;;;;7331074;19;109761;-63
2023/06/28 05:33:01;;;;;;;;;;;19.10;99.90;;;;;;7333671;19;109408;-63
2023/06/28 05:35:29;;;;;;;;;;;19.20;99.90;;;;;;7335351;19;109255;-63
2023/06/28 05:37:56;;;;;;;;;;;19.10;99.90;;;;;;7331702;19;109184;-63
2023/06/28 05:40:23;;;;;;;;;;;19.10;99.90;;;;;;7334571;19;108598;-64
2023/06/28 05:42:50;;;;;;;;;;;19.20;99.90;;;;;;7336926;19;109123;-63
2023/06/28 05:45:17;;;;;;;;;;;19.20;99.90;;;;;;7334440;19;109787;-64
2023/06/28 05:47:47;;;;;;;;;;;19.20;99.90;;;;;;7334672;19;108739;-64
2023/06/28 05:50:15;;;;;;;;;;;19.10;99.90;;;;;;7333767;19;109576;-64
2023/06/28 05:52:43;;;;;;;;;;;19.20;99.90;;;;;;7331881;19;109232;-64
2023/06/28 05:55:11;;;;;;;;;;;19.20;99.90;;;;;;7333773;19;108797;-64
2023/06/28 05:57:39;;;;;;;;;;;19.20;99.90;;;;;;7330813;19;109517;-64
2023/06/28 06:00:07;;;;;;;;;;;19.20;99.90;;;;;;7334460;19;108825;-64
2023/06/28 06:02:35;;;;;;;;;;;19.20;99.90;;;;;;7333862;19;108955;-64
2023/06/28 06:05:02;;;;;;;;;;;19.30;99.90;;;;;;7339902;19;109196;-65
2023/06/28 06:07:30;;;;;;;;;;;19.30;99.90;;;;;;7333885;19;108785;-64
2023/06/28 06:09:57;;;;;;;;;;;19.40;99.90;;;;;;7333488;19;109291;-64
2023/06/28 06:12:24;;;;;;;;;;;19.40;99.90;;;;;;7332750;19;108852;-65
2023/06/28 06:14:51;;;;;;;;;;;19.40;99.90;;;;;;7332843;19;109596;-64
2023/06/28 06:17:18;;;;;;;;;;;19.50;99.90;;;;;;7333947;19;109547;-64
2023/06/28 06:19:45;;;;;;;;;;;19.50;99.90;;;;;;7332544;19;109105;-64
2023/06/28 06:22:12;;;;;;;;;;;19.50;99.90;;;;;;7333890;19;108985;-64
2023/06/28 06:24:39;;;;;;;;;;;19.60;99.90;;;;;;7339169;19;109705;-64
2023/06/28 06:27:07;;;;;;;;;;;19.60;99.90;;;;;;7347515;19;109065;-74
2023/06/28 06:29:34;;;;;;;;;;;19.70;99.90;;;;;;7339303;19;109200;-65
2023/06/28 06:32:01;;;;;;;;;;;19.70;99.90;;;;;;7339555;19;108533;-72
2023/06/28 06:34:28;;;;;;;;;;;19.70;99.90;;;;;;7337845;19;109477;-68
2023/06/28 06:36:57;;;;;;;;;;;19.80;99.90;;;;;;7337420;19;111157;-65
2023/06/28 06:39:24;;;;;;;;;;;19.80;99.90;;;;;;7339145;19;108899;-68
2023/06/28 06:41:51;;;;;;;;;;;19.90;99.90;;;;;;7337407;19;108383;-64
2023/06/28 06:44:18;;;;;;;;;;;19.90;99.90;;;;;;7337474;19;109871;-68
2023/06/28 06:46:45;;;;;;;;;;;19.90;99.90;;;;;;7338461;19;109467;-64
2023/06/28 06:49:12;;;;;;;;;;;20.00;99.90;;;;;;7343575;19;111404;-64
2023/06/28 06:51:39;;;;;;;;;;;20.10;99.90;;;;;;7340840;19;109466;-65
2023/06/28 06:54:08;;;;;;;;;;;20.20;99.90;;;;;;7337052;19;108552;-65
2023/06/28 06:56:35;;;;;;;;;;;20.20;99.90;;;;;;7338029;19;110030;-66
2023/06/28 06:59:02;;;;;;;;;;;20.30;99.90;;;;;;7340917;19;109083;-65
2023/06/28 07:01:32;;;;;;;;;;;20.30;99.90;;;;;;7339538;19;108803;-64
2023/06/28 07:03:59;;;;;;;;;;;20.30;99.90;;;;;;7338909;19;109220;-64
2023/06/28 07:06:26;;;;;;;;;;;20.40;99.90;;;;;;7336686;19;109010;-64
2023/06/28 07:08:54;;;;;;;;;;;20.50;99.90;;;;;;7338714;19;108715;-65
2023/06/28 07:11:21;;;;;;;;;;;20.50;99.90;;;;;;7344501;19;110067;-64
2023/06/28 07:13:48;;;;;;;;;;;20.60;99.90;;;;;;7337418;19;108624;-64
2023/06/28 07:16:15;;;;;;;;;;;20.70;99.90;;;;;;7338472;19;109958;-64
2023/06/28 07:18:42;;;;;;;;;;;20.80;99.90;;;;;;7336501;19;108512;-65
2023/06/28 07:21:10;;;;;;;;;;;20.80;99.90;;;;;;7336345;19;108558;-64
2023/06/28 07:23:38;;;;;;;;;;;20.90;99.90;;;;;;7339165;19;109102;-65
2023/06/28 07:26:05;;;;;;;;;;;20.90;99.90;;;;;;7336228;19;109415;-66
2023/06/28 07:28:32;;;;;;;;;;;21.00;99.90;;;;;;7337343;19;110513;-65
2023/06/28 07:30:59;;;;;;;;;;;21.00;99.90;;;;;;7341407;19;110091;-64
2023/06/28 07:33:29;;;;;;;;;;;21.10;99.90;;;;;;7335957;19;110554;-64
2023/06/28 07:35:56;;;;;;;;;;;21.20;99.90;;;;;;7335567;19;109490;-64
2023/06/28 07:38:23;;;;;;;;;;;21.30;99.90;;;;;;7338460;19;110955;-64
2023/06/28 07:40:51;;;;;;;;;;;21.40;99.90;;;;;;7334064;19;109092;-64
2023/06/28 07:43:18;;;;;;;;;;;21.40;99.90;;;;;;7338308;19;109081;-64
2023/06/28 07:45:45;;;;;;;;;;;21.50;99.90;;;;;;7336844;19;109591;-64
2023/06/28 07:48:12;;;;;;;;;;;21.60;99.90;;;;;;7340626;19;110449;-64
2023/06/28 07:50:40;;;;;;;;;;;21.60;99.90;;;;;;7335140;19;110024;-64
2023/06/28 07:53:07;;;;;;;;;;;21.70;99.90;;;;;;7344653;19;108996;-64
2023/06/28 07:55:34;;;;;;;;;;;21.80;99.90;;;;;;7336123;19;109667;-64
2023/06/28 07:58:02;;;;;;;;;;;21.80;99.90;;;;;;7337297;19;108606;-64
2023/06/28 08:00:30;;;;;;;;;;;21.90;99.90;;;;;;7336374;19;109594;-64
2023/06/28 08:03:01;;;;;;;;;;;22.00;99.90;;;;;;7336828;19;110040;-64
2023/06/28 08:05:29;;;;;;;;;;;22.00;99.90;;;;;;7336968;19;110466;-64
2023/06/28 08:07:56;;;;;;;;;;;22.10;99.90;;;;;;7334662;19;108936;-64
2023/06/28 08:10:23;;;;;;;;;;;22.20;99.90;;;;;;7338324;19;111170;-64
2023/06/28 08:12:54;;;;;;;;;;;22.20;99.90;;;;;;7335264;19;108612;-64
2023/06/28 08:15:21;;;;;;;;;;;22.30;99.90;;;;;;7340605;19;108404;-64
2023/06/28 08:17:48;;;;;;;;;;;22.40;99.90;;;;;;7334048;19;109343;-64
2023/06/28 08:20:15;;;;;;;;;;;22.30;99.90;;;;;;7338125;19;109012;-64
2023/06/28 08:22:42;;;;;;;;;;;22.30;99.90;;;;;;7332350;19;109670;-64
2023/06/28 08:25:09;;;;;;;;;;;22.40;99.90;;;;;;7335796;19;113771;-64
2023/06/28 08:27:37;;;;;;;;;;;22.50;99.90;;;;;;7335839;19;109006;-64
2023/06/28 08:30:04;;;;;;;;;;;22.60;99.90;;;;;;7336024;19;108798;-65
2023/06/28 08:32:32;;;;;;;;;;;22.70;99.90;;;;;;7335061;19;108995;-65
2023/06/28 08:34:59;;;;;;;;;;;22.80;99.90;;;;;;7337086;19;109816;-64
2023/06/28 08:37:26;;;;;;;;;;;22.80;99.90;;;;;;7339228;19;109391;-64
2023/06/28 08:39:53;;;;;;;;;;;22.90;99.90;;;;;;7337259;19;110347;-64
2023/06/28 08:42:21;;;;;;;;;;;22.90;99.90;;;;;;7333823;19;110030;-65
2023/06/28 08:44:51;;;;;;;;;;;22.90;99.90;;;;;;7335350;19;108839;-65
2023/06/28 08:47:19;;;;;;;;;;;23.00;99.90;;;;;;7335264;19;108715;-64
2023/06/28 08:49:46;;;;;;;;;;;23.10;99.90;;;;;;7334322;19;109371;-64
2023/06/28 08:52:14;;;;;;;;;;;23.20;99.90;;;;;;7335212;19;109321;-65
2023/06/28 08:54:42;;;;;;;;;;;23.30;99.90;;;;;;7336384;19;109319;-65
2023/06/28 08:57:09;;;;;;;;;;;23.40;99.90;;;;;;7331841;19;110755;-65
2023/06/28 08:59:39;;;;;;;;;;;23.50;99.90;;;;;;7335549;19;110031;-65
2023/06/28 09:02:08;;;;;;;;;;;23.50;99.90;;;;;;7332024;19;109623;-65
2023/06/28 09:04:36;;;;;;;;;;;23.60;99.90;;;;;;7338339;19;109163;-65
2023/06/28 09:07:04;;;;;;;;;;;23.70;99.90;;;;;;7334515;19;109011;-65
2023/06/28 09:09:32;;;;;;;;;;;23.70;99.90;;;;;;7333711;19;110307;-62
2023/06/28 09:12:00;;;;;;;;;;;23.90;99.90;;;;;;7334335;19;110578;-65
2023/06/28 09:14:27;;;;;;;;;;;23.90;99.90;;;;;;7331505;19;109809;-65
2023/06/28 09:16:54;;;;;;;;;;;24.00;99.90;;;;;;7335614;19;111051;-65
2023/06/28 09:19:21;;;;;;;;;;;24.10;99.90;;;;;;7335476;19;109092;-65
2023/06/28 09:21:48;;;;;;;;;;;24.30;99.90;;;;;;7341740;19;108681;-65
2023/06/28 09:24:15;;;;;;;;;;;24.50;99.90;;;;;;7333753;19;108687;-62
2023/06/28 09:26:43;;;;;;;;;;;24.60;99.90;;;;;;7332536;19;109975;-62
2023/06/28 09:29:11;;;;;;;;;;;24.50;99.90;;;;;;7334791;19;109395;-63
2023/06/28 09:31:42;;;;;;;;;;;24.70;99.90;;;;;;7332979;19;108470;-62
2023/06/28 09:34:09;;;;;;;;;;;24.70;99.90;;;;;;7335606;19;109368;-66
2023/06/28 09:36:39;;;;;;;;;;;24.70;99.90;;;;;;7334551;19;110095;-65
2023/06/28 09:39:10;;;;;;;;;;;24.70;99.90;;;;;;7334237;19;108759;-65
2023/06/28 09:41:38;;;;;;;;;;;24.70;99.90;;;;;;7338283;19;109039;-62
2023/06/28 09:44:06;;;;;;;;;;;24.80;99.90;;;;;;7335319;19;108727;-62
2023/06/28 09:46:34;;;;;;;;;;;24.90;99.90;;;;;;7332846;19;109653;-63
2023/06/28 09:49:01;;;;;;;;;;;24.90;99.90;;;;;;7334023;19;110371;-62
2023/06/28 09:51:28;;;;;;;;;;;24.90;99.90;;;;;;7327684;19;109917;-63
2023/06/28 09:53:58;;;;;;;;;;;25.00;99.90;;;;;;7329169;19;109842;-63
2023/06/28 09:56:35;;;;;;;;;;;25.00;99.90;;;;;;7327368;19;115978;-65
2023/06/28 09:59:05;;;;;;;;;;;25.00;99.90;;;;;;7330193;19;109359;-66
2023/06/28 10:01:41;;;;;;;;;;;25.10;99.90;;;;;;7331797;19;110487;-65
2023/06/28 10:04:08;;;;;;;;;;;25.20;99.90;;;;;;7335983;19;110182;-65
2023/06/28 10:06:39;;;;;;;;;;;25.40;99.90;;;;;;7330106;19;108995;-65
2023/06/28 10:09:07;;;;;;;;;;;25.40;99.90;;;;;;7330333;19;109181;-65
2023/06/28 10:11:36;;;;;;;;;;;25.50;99.90;;;;;;7336140;19;108745;-65
2023/06/28 10:14:05;;;;;;;;;;;25.60;99.90;;;;;;7332954;19;109066;-65
2023/06/28 10:16:33;;;;;;;;;;;25.60;99.90;;;;;;7332563;19;108831;-65
2023/06/28 10:19:01;;;;;;;;;;;25.70;99.90;;;;;;7333276;19;108403;-65
2023/06/28 10:21:29;;;;;;;;;;;25.70;99.90;;;;;;7332635;19;109734;-67
2023/06/28 10:23:57;;;;;;;;;;;25.80;99.90;;;;;;7330733;19;110409;-68
2023/06/28 10:26:25;;;;;;;;;;;25.90;99.90;;;;;;7338259;19;108864;-68
2023/06/28 10:28:54;;;;;;;;;;;26.10;99.90;;;;;;7332273;19;111221;-68
2023/06/28 10:31:21;;;;;;;;;;;26.20;99.90;;;;;;7329548;19;108452;-68
2023/06/28 10:33:49;;;;;;;;;;;26.20;99.90;;;;;;7331863;19;110388;-68
2023/06/28 10:36:16;;;;;;;;;;;26.30;99.90;;;;;;7328453;19;109429;-66
2023/06/28 10:38:44;;;;;;;;;;;26.50;99.90;;;;;;7332745;19;110344;-66
2023/06/28 10:41:15;;;;;;;;;;;26.60;99.90;;;;;;7334344;19;108619;-63
2023/06/28 10:43:43;;;;;;;;;;;26.60;99.90;;;;;;7328945;19;109878;-63
2023/06/28 10:46:22;;;;;;;;;;;26.70;99.90;;;;;;7332067;19;109827;-63
2023/06/28 10:48:56;;;;;;;;;;;26.70;99.90;;;;;;7335550;19;109096;-64
2023/06/28 10:51:30;;;;;;;;;;;26.90;99.90;;;;;;7332301;19;108755;-64
2023/06/28 10:54:08;;;;;;;;;;;27.00;99.90;;;;;;7330075;19;109346;-64
2023/06/28 10:56:47;;;;;;;;;;;27.00;99.90;;;;;;7324833;19;109621;-65
2023/06/28 10:59:14;;;;;;;;;;;27.00;99.90;;;;;;7330798;19;110121;-64
2023/06/28 11:01:44;;;;;;;;;;;27.00;99.90;;;;;;7332300;19;109105;-63
2023/06/28 11:04:18;;;;;;;;;;;27.20;99.90;;;;;;7330481;19;109170;-64
2023/06/28 11:06:46;;;;;;;;;;;27.40;99.90;;;;;;7331872;19;109250;-64
2023/06/28 11:09:14;;;;;;;;;;;27.60;99.90;;;;;;7333238;19;109514;-64
2023/06/28 11:12:00;;;;;;;;;;;27.70;99.90;;;;;;7342187;19;110050;-64
2023/06/28 11:14:30;;;;;;;;;;;27.80;99.90;;;;;;7339807;19;109393;-65
2023/06/28 11:17:01;;;;;;;;;;;27.80;99.90;;;;;;7335464;19;109410;-64
2023/06/28 11:19:29;;;;;;;;;;;27.70;99.90;;;;;;7334980;19;110793;-65
2023/06/28 11:21:57;;;;;;;;;;;27.70;99.90;;;;;;7339261;19;108995;-65
2023/06/28 11:24:25;;;;;;;;;;;27.70;99.90;;;;;;7334914;19;109485;-64
2023/06/28 11:26:52;;;;;;;;;;;27.70;99.90;;;;;;7337098;19;109063;-64
2023/06/28 11:29:21;;;;;;;;;;;27.60;99.90;;;;;;7336570;19;108755;-64
2023/06/28 11:31:49;;;;;;;;;;;27.50;99.90;;;;;;7338858;19;109346;-64
2023/06/28 11:34:16;;;;;;;;;;;27.50;99.90;;;;;;7341262;19;109696;-64
2023/06/28 11:36:44;;;;;;;;;;;27.50;99.90;;;;;;7335752;19;109080;-64
2023/06/28 11:39:15;;;;;;;;;;;27.50;99.90;;;;;;7334979;19;108580;-64
2023/06/28 11:41:45;;;;;;;;;;;27.50;99.90;;;;;;7338278;19;108713;-64
2023/06/28 11:44:13;;;;;;;;;;;27.40;99.90;;;;;;7335872;19;110230;-64
2023/06/28 11:46:40;;;;;;;;;;;27.40;99.90;;;;;;7338570;19;111938;-64
2023/06/28 11:49:08;;;;;;;;;;;27.50;99.90;;;;;;7338166;19;108718;-64
2023/06/28 11:51:35;;;;;;;;;;;27.50;99.90;;;;;;7338408;19;109122;-64
2023/06/28 11:54:06;;;;;;;;;;;27.40;99.90;;;;;;7340711;19;109111;-64
2023/06/28 11:56:34;;;;;;;;;;;27.40;99.90;;;;;;7337725;19;109426;-64
2023/06/28 11:59:11;;;;;;;;;;;27.40;99.90;;;;;;7336070;19;108910;-64
2023/06/28 12:01:38;;;;;;;;;;;27.30;99.90;;;;;;7335746;19;108825;-64
2023/06/28 12:04:18;;;;;;;;;;;27.40;99.90;;;;;;7338609;19;109517;-64
2023/06/28 12:06:49;;;;;;;;;;;27.50;99.90;;;;;;7338574;19;108557;-65
2023/06/28 12:09:18;;;;;;;;;;;27.60;99.90;;;;;;7336041;19;108347;-64
2023/06/28 12:11:48;;;;;;;;;;;27.70;99.90;;;;;;7336151;19;109423;-64
2023/06/28 12:14:15;;;;;;;;;;;27.80;99.90;;;;;;7336163;19;108460;-64
2023/06/28 12:16:45;;;;;;;;;;;27.90;99.90;;;;;;7339470;19;108841;-64
2023/06/28 12:19:14;;;;;;;;;;;28.10;99.90;;;;;;7335330;19;110041;-65
2023/06/28 12:21:41;;;;;;;;;;;28.10;99.90;;;;;;7333932;19;108750;-64
2023/06/28 12:24:20;;;;;;;;;;;28.10;99.90;;;;;;7334196;19;108762;-65
2023/06/28 12:26:47;;;;;;;;;;;28.30;99.90;;;;;;7335028;19;109983;-64
2023/06/28 12:29:21;;;;;;;;;;;28.30;99.90;;;;;;7336635;19;109477;-64
2023/06/28 12:31:52;;;;;;;;;;;28.30;99.90;;;;;;7335970;19;110976;-64
2023/06/28 12:34:22;;;;;;;;;;;28.10;99.70;;;;;;7335141;19;109971;-66
2023/06/28 12:36:53;;;;;;;;;;;28.00;99.90;;;;;;7335148;19;108925;-65
2023/06/28 12:39:22;;;;;;;;;;;27.90;99.90;;;;;;7340106;19;111066;-64
2023/06/28 12:41:58;;;;;;;;;;;27.90;99.90;;;;;;7333238;19;108754;-64
2023/06/28 12:44:25;;;;;;;;;;;27.80;99.90;;;;;;7331318;19;109064;-63
2023/06/28 12:46:52;;;;;;;;;;;27.70;99.90;;;;;;7332475;19;110589;-63
2023/06/28 12:49:19;;;;;;;;;;;27.60;99.90;;;;;;7332878;19;110176;-64
2023/06/28 12:51:47;;;;;;;;;;;27.50;99.90;;;;;;7333676;19;109156;-64
2023/06/28 12:54:14;;;;;;;;;;;27.40;99.90;;;;;;7331904;19;108950;-64
2023/06/28 12:56:42;;;;;;;;;;;27.40;99.90;;;;;;7334571;19;109477;-64
2023/06/28 12:59:09;;;;;;;;;;;27.30;99.90;;;;;;7328349;19;110263;-63
2023/06/28 13:01:38;;;;;;;;;;;27.30;99.90;;;;;;7336478;19;108878;-64
2023/06/28 13:04:05;;;;;;;;;;;27.50;99.90;;;;;;7331619;19;110544;-64
2023/06/28 13:06:33;;;;;;;;;;;27.60;99.90;;;;;;7331052;19;109359;-64
2023/06/28 13:09:00;;;;;;;;;;;27.70;99.90;;;;;;7329461;19;110746;-64
2023/06/28 13:11:31;;;;;;;;;;;27.80;99.90;;;;;;7330282;19;110320;-64
2023/06/28 13:13:58;;;;;;;;;;;27.90;99.90;;;;;;7333597;19;108835;-64
2023/06/28 13:16:25;;;;;;;;;;;27.90;99.90;;;;;;7328625;19;108846;-64
2023/06/28 13:18:52;;;;;;;;;;;27.90;99.90;;;;;;7332850;19;110481;-64
2023/06/28 13:21:19;;;;;;;;;;;28.00;99.90;;;;;;7333980;19;108636;-64
2023/06/28 13:23:47;;;;;;;;;;;28.00;99.90;;;;;;7341174;19;109573;-64
2023/06/28 13:26:14;;;;;;;;;;;28.10;99.90;;;;;;7333029;19;109196;-64
2023/06/28 13:28:43;;;;;;;;;;;28.10;99.90;;;;;;7333254;19;108769;-64
2023/06/28 13:31:10;;;;;;;;;;;28.10;99.90;;;;;;7330153;19;109200;-64
2023/06/28 13:33:38;;;;;;;;;;;28.10;99.20;;;;;;7330633;19;110509;-68
2023/06/28 13:36:05;;;;;;;;;;;28.10;99.70;;;;;;7333913;19;108514;-64
2023/06/28 13:38:34;;;;;;;;;;;28.10;99.80;;;;;;7333402;19;109414;-64
2023/06/28 13:41:01;;;;;;;;;;;28.10;99.80;;;;;;7333033;19;108751;-64
2023/06/28 13:43:28;;;;;;;;;;;28.10;99.70;;;;;;7339108;19;109048;-64
2023/06/28 13:45:55;;;;;;;;;;;28.10;99.60;;;;;;7333215;19;108958;-64
2023/06/28 13:48:22;;;;;;;;;;;28.00;99.50;;;;;;7333250;19;109350;-64
2023/06/28 13:50:50;;;;;;;;;;;28.00;99.60;;;;;;7329242;19;108807;-64
2023/06/28 13:53:17;;;;;;;;;;;28.00;99.40;;;;;;7332382;19;109109;-64
2023/06/28 13:55:44;;;;;;;;;;;28.00;99.30;;;;;;7331875;19;109009;-64
2023/06/28 13:58:11;;;;;;;;;;;27.90;99.50;;;;;;7328396;19;110061;-64
2023/06/28 14:00:40;;;;;;;;;;;27.90;99.60;;;;;;7329967;19;109062;-66
2023/06/28 14:03:07;;;;;;;;;;;27.90;99.70;;;;;;7336302;19;108958;-65
2023/06/28 14:05:34;;;;;;;;;;;28.00;99.70;;;;;;7337701;19;109587;-64
2023/06/28 14:08:02;;;;;;;;;;;27.90;99.60;;;;;;7333362;19;108837;-64